sensor_id;sensor_type;location;lat;lon;timestamp;pressure;altitude;pressure_sealevel;temperature;humidity
39491;BME280;25175;50.140;18.990;2024-03-07T00:01:41;98993.75;;;4.02;66.77
39491;BME280;25175;50.140;18.990;2024-03-07T00:06:15;98981.03;;;3.91;66.63
39491;BME280;25175;50.140;18.990;2024-03-07T00:39:47;98989.81;;;3.73;67.28
39491;BME280;25175;50.140;18.990;2024-03-07T00:43:06;98991.75;;;3.71;67.26
39491;BME280;25175;50.140;18.990;2024-03-07T01:10:20;98985.06;;;3.86;67.31
39491;BME280;25175;50.140;18.990;2024-03-07T01:14:12;98981.19;;;3.90;66.75
39491;BME280;25175;50.140;18.990;2024-03-07T01:17:53;98982.00;;;3.90;66.71
39491;BME280;25175;50.140;18.990;2024-03-07T01:21:35;98971.63;;;3.90;66.74
39491;BME280;25175;50.140;18.990;2024-03-07T01:25:05;98971.16;;;3.95;66.55
39491;BME280;25175;50.140;18.990;2024-03-07T01:53:51;98971.63;;;3.47;67.41
39491;BME280;25175;50.140;18.990;2024-03-07T02:01:43;98968.06;;;3.48;67.07
39491;BME280;25175;50.140;18.990;2024-03-07T02:10:33;98958.38;;;3.50;66.68
39491;BME280;25175;50.140;18.990;2024-03-07T02:23:40;98957.81;;;3.47;66.60
39491;BME280;25175;50.140;18.990;2024-03-07T02:30:50;98958.38;;;3.50;66.22
39491;BME280;25175;50.140;18.990;2024-03-07T02:34:33;98947.16;;;3.50;66.37
39491;BME280;25175;50.140;18.990;2024-03-07T02:38:17;98955.09;;;3.48;66.19
39491;BME280;25175;50.140;18.990;2024-03-07T02:46:48;98939.13;;;3.35;66.32
39491;BME280;25175;50.140;18.990;2024-03-07T02:50:03;98956.53;;;3.43;66.05
39491;BME280;25175;50.140;18.990;2024-03-07T02:53:30;98949.34;;;3.37;66.32
39491;BME280;25175;50.140;18.990;2024-03-07T03:01:48;98954.78;;;3.26;66.40
39491;BME280;25175;50.140;18.990;2024-03-07T03:09:04;98949.06;;;3.22;66.04
39491;BME280;25175;50.140;18.990;2024-03-07T03:30:43;98956.53;;;3.25;65.68
39491;BME280;25175;50.140;18.990;2024-03-07T03:35:18;98951.34;;;3.43;65.38
39491;BME280;25175;50.140;18.990;2024-03-07T03:39:00;98946.06;;;3.35;65.41
39491;BME280;25175;50.140;18.990;2024-03-07T03:46:58;98948.84;;;3.16;65.80
39491;BME280;25175;50.140;18.990;2024-03-07T03:50:33;98960.78;;;3.09;65.75
39491;BME280;25175;50.140;18.990;2024-03-07T03:54:16;98948.41;;;3.03;65.94
39491;BME280;25175;50.140;18.990;2024-03-07T03:57:50;98952.78;;;3.02;66.18
39491;BME280;25175;50.140;18.990;2024-03-07T04:13:37;98964.16;;;2.92;65.57
39491;BME280;25175;50.140;18.990;2024-03-07T04:17:26;98968.41;;;2.93;65.50
39491;BME280;25175;50.140;18.990;2024-03-07T04:20:47;98967.13;;;2.97;65.73
39491;BME280;25175;50.140;18.990;2024-03-07T04:32:00;98973.44;;;2.77;65.09
39491;BME280;25175;50.140;18.990;2024-03-07T04:39:10;98971.56;;;2.69;64.80
39491;BME280;25175;50.140;18.990;2024-03-07T04:42:39;98982.75;;;2.70;64.76
39491;BME280;25175;50.140;18.990;2024-03-07T05:02:19;98989.09;;;2.58;64.71
39491;BME280;25175;50.140;18.990;2024-03-07T05:05:29;98985.00;;;2.55;65.21
39491;BME280;25175;50.140;18.990;2024-03-07T05:08:59;98972.25;;;2.44;64.93
39491;BME280;25175;50.140;18.990;2024-03-07T05:12:58;98978.34;;;2.53;64.81
39491;BME280;25175;50.140;18.990;2024-03-07T05:21:33;98988.50;;;2.64;64.38
39491;BME280;25175;50.140;18.990;2024-03-07T05:25:17;98988.94;;;2.59;64.14
39491;BME280;25175;50.140;18.990;2024-03-07T05:28:34;99008.44;;;2.63;64.11
39491;BME280;25175;50.140;18.990;2024-03-07T05:32:22;99009.91;;;2.66;64.17
39491;BME280;25175;50.140;18.990;2024-03-07T05:35:35;99005.69;;;2.65;63.56
39491;BME280;25175;50.140;18.990;2024-03-07T05:38:58;99008.44;;;2.63;63.79
39491;BME280;25175;50.140;18.990;2024-03-07T05:42:15;99006.63;;;2.64;63.52
39491;BME280;25175;50.140;18.990;2024-03-07T05:45:22;99018.66;;;2.65;63.77
39491;BME280;25175;50.140;18.990;2024-03-07T05:48:47;99009.91;;;2.66;63.57
39491;BME280;25175;50.140;18.990;2024-03-07T05:52:42;99023.66;;;2.66;63.32
39491;BME280;25175;50.140;18.990;2024-03-07T05:55:59;99021.78;;;2.68;63.07
39491;BME280;25175;50.140;18.990;2024-03-07T05:59:39;99013.03;;;2.69;63.08
39491;BME280;25175;50.140;18.990;2024-03-07T06:03:09;99015.25;;;2.64;62.94
39491;BME280;25175;50.140;18.990;2024-03-07T06:07:20;99022.94;;;2.56;62.80
39491;BME280;25175;50.140;18.990;2024-03-07T06:10:51;99013.13;;;2.50;63.20
39491;BME280;25175;50.140;18.990;2024-03-07T06:19:07;99028.78;;;2.58;63.48
39491;BME280;25175;50.140;18.990;2024-03-07T06:22:27;99032.47;;;2.56;62.95
39491;BME280;25175;50.140;18.990;2024-03-07T06:25:35;99027.56;;;2.53;62.99
39491;BME280;25175;50.140;18.990;2024-03-07T06:29:27;99023.72;;;2.57;62.91
39491;BME280;25175;50.140;18.990;2024-03-07T06:32:47;99033.44;;;2.55;62.88
39491;BME280;25175;50.140;18.990;2024-03-07T06:35:54;99028.97;;;2.47;62.94
39491;BME280;25175;50.140;18.990;2024-03-07T06:39:09;99048.84;;;2.47;63.45
39491;BME280;25175;50.140;18.990;2024-03-07T06:42:37;99027.22;;;2.38;62.91
39491;BME280;25175;50.140;18.990;2024-03-07T06:46:01;99046.44;;;2.45;62.76
39491;BME280;25175;50.140;18.990;2024-03-07T06:52:59;99049.81;;;2.46;63.02
39491;BME280;25175;50.140;18.990;2024-03-07T06:57:23;99044.06;;;2.52;63.11
39491;BME280;25175;50.140;18.990;2024-03-07T07:05:42;99051.66;;;2.63;62.99
39491;BME280;25175;50.140;18.990;2024-03-07T07:09:31;99051.66;;;2.63;62.58
39491;BME280;25175;50.140;18.990;2024-03-07T07:13:01;99055.16;;;2.71;63.27
39491;BME280;25175;50.140;18.990;2024-03-07T07:16:09;99058.69;;;2.70;62.53
39491;BME280;25175;50.140;18.990;2024-03-07T07:19:53;99055.28;;;2.70;62.66
39491;BME280;25175;50.140;18.990;2024-03-07T07:23:33;99050.94;;;2.70;62.50
39491;BME280;25175;50.140;18.990;2024-03-07T07:30:24;99056.09;;;2.70;62.79
39491;BME280;25175;50.140;18.990;2024-03-07T07:33:34;99057.88;;;2.70;62.92
39491;BME280;25175;50.140;18.990;2024-03-07T07:36:50;99047.75;;;2.76;62.77
39491;BME280;25175;50.140;18.990;2024-03-07T07:44:00;99067.78;;;2.84;62.17
39491;BME280;25175;50.140;18.990;2024-03-07T07:51:36;99060.50;;;2.87;61.75
39491;BME280;25175;50.140;18.990;2024-03-07T07:55:44;99050.59;;;2.83;62.10
39491;BME280;25175;50.140;18.990;2024-03-07T07:59:32;99068.72;;;2.83;62.19
39491;BME280;25175;50.140;18.990;2024-03-07T08:02:44;99055.78;;;2.83;61.84
39491;BME280;25175;50.140;18.990;2024-03-07T08:05:59;99068.63;;;2.75;61.85
39491;BME280;25175;50.140;18.990;2024-03-07T08:09:13;99060.47;;;2.70;62.07
39491;BME280;25175;50.140;18.990;2024-03-07T08:12:27;99064.31;;;2.66;62.06
39491;BME280;25175;50.140;18.990;2024-03-07T08:16:07;98702.22;;;0.37;62.17
39491;BME280;25175;50.140;18.990;2024-03-07T08:23:51;99065.44;;;2.63;62.28
39491;BME280;25175;50.140;18.990;2024-03-07T08:36:17;99082.53;;;2.74;62.08
39491;BME280;25175;50.140;18.990;2024-03-07T08:40:31;99079.00;;;2.75;62.20
39491;BME280;25175;50.140;18.990;2024-03-07T08:47:50;99070.81;;;2.79;62.14
39491;BME280;25175;50.140;18.990;2024-03-07T09:00:08;99082.75;;;2.90;61.46
39491;BME280;25175;50.140;18.990;2024-03-07T09:08:29;99096.41;;;2.82;61.61
39491;BME280;25175;50.140;18.990;2024-03-07T09:12:15;99098.22;;;2.82;61.56
39491;BME280;25175;50.140;18.990;2024-03-07T09:15:46;99086.19;;;2.81;61.70
39491;BME280;25175;50.140;18.990;2024-03-07T09:32:11;99092.13;;;2.91;61.83
39491;BME280;25175;50.140;18.990;2024-03-07T09:39:02;99101.00;;;2.98;61.51
39491;BME280;25175;50.140;18.990;2024-03-07T09:42:30;99098.09;;;3.01;61.39
39491;BME280;25175;50.140;18.990;2024-03-07T09:49:28;99111.56;;;3.04;61.29
39491;BME280;25175;50.140;18.990;2024-03-07T09:51:03;99107.34;;;3.03;61.40
39491;BME280;25175;50.140;18.990;2024-03-07T09:54:48;99111.88;;;3.01;60.93
39491;BME280;25175;50.140;18.990;2024-03-07T10:06:04;99107.34;;;3.03;61.37
39491;BME280;25175;50.140;18.990;2024-03-07T10:09:22;99102.31;;;3.02;61.00
39491;BME280;25175;50.140;18.990;2024-03-07T10:13:21;99113.38;;;3.04;60.81
39491;BME280;25175;50.140;18.990;2024-03-07T10:17:23;99111.34;;;2.98;60.90
39491;BME280;25175;50.140;18.990;2024-03-07T10:21:05;99114.34;;;2.93;61.01
39491;BME280;25175;50.140;18.990;2024-03-07T10:28:40;99107.03;;;2.89;61.38
39491;BME280;25175;50.140;18.990;2024-03-07T10:32:25;99116.56;;;2.88;61.59
39491;BME280;25175;50.140;18.990;2024-03-07T10:35:33;98742.91;;;0.62;61.25
39491;BME280;25175;50.140;18.990;2024-03-07T10:38:42;99118.06;;;2.91;61.57
39491;BME280;25175;50.140;18.990;2024-03-07T10:42:57;99131.97;;;2.90;61.45
39491;BME280;25175;50.140;18.990;2024-03-07T10:46:05;99133.47;;;2.92;61.54
39491;BME280;25175;50.140;18.990;2024-03-07T10:54:34;99124.47;;;2.96;61.38
39491;BME280;25175;50.140;18.990;2024-03-07T11:05:54;99121.72;;;2.98;61.74
39491;BME280;25175;50.140;18.990;2024-03-07T11:09:47;99108.31;;;3.02;61.87
39491;BME280;25175;50.140;18.990;2024-03-07T11:16:58;99117.97;;;3.10;61.62
39491;BME280;25175;50.140;18.990;2024-03-07T11:20:27;99111.38;;;3.15;61.42
39491;BME280;25175;50.140;18.990;2024-03-07T11:23:57;99092.47;;;3.05;61.18
39491;BME280;25175;50.140;18.990;2024-03-07T11:27:33;99115.25;;;3.29;61.03
39491;BME280;25175;50.140;18.990;2024-03-07T11:31:12;99107.19;;;3.32;60.41
39491;BME280;25175;50.140;18.990;2024-03-07T11:34:45;99112.91;;;3.35;60.60
39491;BME280;25175;50.140;18.990;2024-03-07T11:41:36;99153.19;;;3.30;60.34
39491;BME280;25175;50.140;18.990;2024-03-07T11:45:25;99105.38;;;3.32;60.43
39491;BME280;25175;50.140;18.990;2024-03-07T11:49:19;99115.56;;;3.43;59.59
39491;BME280;25175;50.140;18.990;2024-03-07T12:00:35;99103.69;;;3.41;59.57
39491;BME280;25175;50.140;18.990;2024-03-07T12:04:22;99102.38;;;3.37;59.55
39491;BME280;25175;50.140;18.990;2024-03-07T12:07:51;99105.25;;;3.34;59.46
39491;BME280;25175;50.140;18.990;2024-03-07T12:11:00;99105.78;;;3.37;59.88
39491;BME280;25175;50.140;18.990;2024-03-07T12:14:15;99107.41;;;3.38;59.21
39491;BME280;25175;50.140;18.990;2024-03-07T12:17:31;99105.34;;;3.42;59.55
39491;BME280;25175;50.140;18.990;2024-03-07T12:21:36;99108.00;;;3.50;59.32
39491;BME280;25175;50.140;18.990;2024-03-07T12:33:46;99104.69;;;3.57;59.52
39491;BME280;25175;50.140;18.990;2024-03-07T12:37:22;99105.69;;;3.64;59.56
39491;BME280;25175;50.140;18.990;2024-03-07T12:40:35;99109.13;;;3.65;58.76
39491;BME280;25175;50.140;18.990;2024-03-07T12:44:02;99099.16;;;3.60;58.83
39491;BME280;25175;50.140;18.990;2024-03-07T12:55:35;99104.06;;;3.63;58.79
39491;BME280;25175;50.140;18.990;2024-03-07T13:02:42;99110.97;;;3.72;59.03
39491;BME280;25175;50.140;18.990;2024-03-07T13:06:09;99105.88;;;3.80;59.10
39491;BME280;25175;50.140;18.990;2024-03-07T13:17:26;99094.44;;;3.91;58.59
39491;BME280;25175;50.140;18.990;2024-03-07T13:24:20;99095.75;;;3.95;57.88
39491;BME280;25175;50.140;18.990;2024-03-07T13:27:35;99097.19;;;3.89;57.92
39491;BME280;25175;50.140;18.990;2024-03-07T13:31:28;99107.06;;;3.86;58.40
39491;BME280;25175;50.140;18.990;2024-03-07T13:34:49;99093.72;;;3.81;58.66
39491;BME280;25175;50.140;18.990;2024-03-07T13:38:06;99107.41;;;3.91;58.06
39491;BME280;25175;50.140;18.990;2024-03-07T13:41:33;99092.91;;;3.80;57.93
39491;BME280;25175;50.140;18.990;2024-03-07T13:44:53;99089.84;;;3.85;57.83
39491;BME280;25175;50.140;18.990;2024-03-07T13:57:15;99094.44;;;3.91;58.43
39491;BME280;25175;50.140;18.990;2024-03-07T14:00:46;99104.81;;;3.91;57.83
39491;BME280;25175;50.140;18.990;2024-03-07T14:13:14;99061.03;;;3.53;57.26
39491;BME280;25175;50.140;18.990;2024-03-07T14:17:53;99100.94;;;3.77;57.25
39491;BME280;25175;50.140;18.990;2024-03-07T14:22:18;99107.78;;;3.78;57.24
39491;BME280;25175;50.140;18.990;2024-03-07T14:30:44;99089.63;;;3.61;56.61
39491;BME280;25175;50.140;18.990;2024-03-07T14:34:32;99100.44;;;3.74;57.14
39491;BME280;25175;50.140;18.990;2024-03-07T14:38:22;99109.19;;;3.73;56.91
39491;BME280;25175;50.140;18.990;2024-03-07T14:41:58;99097.41;;;3.61;56.76
39491;BME280;25175;50.140;18.990;2024-03-07T14:45:19;99104.97;;;3.72;56.62
39491;BME280;25175;50.140;18.990;2024-03-07T14:49:05;99099.50;;;3.75;56.54
39491;BME280;25175;50.140;18.990;2024-03-07T14:52:58;99094.81;;;3.78;56.40
39491;BME280;25175;50.140;18.990;2024-03-07T14:56:14;99091.63;;;3.84;56.61
39491;BME280;25175;50.140;18.990;2024-03-07T14:59:50;99092.00;;;3.89;56.53
39491;BME280;25175;50.140;18.990;2024-03-07T15:03:15;99095.13;;;3.93;56.68
39491;BME280;25175;50.140;18.990;2024-03-07T15:10:33;99106.50;;;4.00;56.00
39491;BME280;25175;50.140;18.990;2024-03-07T15:14:27;99085.44;;;4.03;55.56
39491;BME280;25175;50.140;18.990;2024-03-07T15:18:14;99095.88;;;4.11;55.71
39491;BME280;25175;50.140;18.990;2024-03-07T15:21:27;99083.41;;;4.14;55.86
39491;BME280;25175;50.140;18.990;2024-03-07T15:24:36;99092.03;;;4.15;55.74
39491;BME280;25175;50.140;18.990;2024-03-07T15:28:22;99090.06;;;4.17;55.13
39491;BME280;25175;50.140;18.990;2024-03-07T15:31:38;99092.38;;;4.20;54.87
39491;BME280;25175;50.140;18.990;2024-03-07T15:34:45;99119.75;;;4.14;55.11
39491;BME280;25175;50.140;18.990;2024-03-07T15:38:27;99100.00;;;4.21;55.29
39491;BME280;25175;50.140;18.990;2024-03-07T15:45:57;99093.78;;;4.14;54.72
39491;BME280;25175;50.140;18.990;2024-03-07T15:49:35;99089.44;;;4.15;54.77
39491;BME280;25175;50.140;18.990;2024-03-07T15:52:49;99087.47;;;4.17;55.01
39491;BME280;25175;50.140;18.990;2024-03-07T15:56:15;99089.78;;;4.20;54.78
39491;BME280;25175;50.140;18.990;2024-03-07T16:00:00;99094.97;;;4.20;54.50
39491;BME280;25175;50.140;18.990;2024-03-07T16:03:58;99087.47;;;4.17;53.94
39491;BME280;25175;50.140;18.990;2024-03-07T16:11:22;99091.41;;;4.21;53.90
39491;BME280;25175;50.140;18.990;2024-03-07T16:14:36;99097.72;;;4.18;54.17
39491;BME280;25175;50.140;18.990;2024-03-07T16:21:48;99104.50;;;4.11;53.70
39491;BME280;25175;50.140;18.990;2024-03-07T16:25:01;99102.84;;;4.10;54.26
39491;BME280;25175;50.140;18.990;2024-03-07T16:32:45;99113.69;;;4.06;53.53
39491;BME280;25175;50.140;18.990;2024-03-07T16:36:03;99114.53;;;4.06;54.14
39491;BME280;25175;50.140;18.990;2024-03-07T16:43:20;99125.53;;;3.83;53.99
39491;BME280;25175;50.140;18.990;2024-03-07T16:46:30;99121.81;;;4.03;54.01
39491;BME280;25175;50.140;18.990;2024-03-07T16:50:50;99073.00;;;3.71;54.33
39491;BME280;25175;50.140;18.990;2024-03-07T16:55:03;99122.25;;;3.98;54.20
39491;BME280;25175;50.140;18.990;2024-03-07T17:05:35;99111.91;;;3.71;54.29
39491;BME280;25175;50.140;18.990;2024-03-07T17:08:47;99141.25;;;3.81;54.10
39491;BME280;25175;50.140;18.990;2024-03-07T17:12:09;99136.47;;;3.77;54.13
39491;BME280;25175;50.140;18.990;2024-03-07T17:15:17;99137.59;;;3.74;53.96
39491;BME280;25175;50.140;18.990;2024-03-07T17:18:50;99144.72;;;3.72;54.05
39491;BME280;25175;50.140;18.990;2024-03-07T17:22:10;99142.25;;;3.71;53.88
39491;BME280;25175;50.140;18.990;2024-03-07T17:25:27;99117.78;;;3.56;54.16
39491;BME280;25175;50.140;18.990;2024-03-07T17:28:48;99149.38;;;3.69;53.82
39491;BME280;25175;50.140;18.990;2024-03-07T17:32:04;99149.38;;;3.69;53.85
39491;BME280;25175;50.140;18.990;2024-03-07T17:35:16;99143.38;;;3.68;53.70
39491;BME280;25175;50.140;18.990;2024-03-07T17:38:34;99152.13;;;3.67;54.13
39491;BME280;25175;50.140;18.990;2024-03-07T17:52:56;99002.31;;;2.82;54.16
39491;BME280;25175;50.140;18.990;2024-03-07T17:56:18;99146.13;;;3.67;54.21
39491;BME280;25175;50.140;18.990;2024-03-07T17:59:46;99151.31;;;3.67;53.83
39491;BME280;25175;50.140;18.990;2024-03-07T18:02:54;99143.84;;;3.64;53.92
39491;BME280;25175;50.140;18.990;2024-03-07T18:06:31;99185.03;;;3.67;53.91
39491;BME280;25175;50.140;18.990;2024-03-07T18:09:40;99150.47;;;3.66;54.07
39491;BME280;25175;50.140;18.990;2024-03-07T18:17:02;99156.50;;;3.67;54.31
39491;BME280;25175;50.140;18.990;2024-03-07T18:33:06;99156.25;;;3.60;54.40
39491;BME280;25175;50.140;18.990;2024-03-07T18:36:50;99167.59;;;3.59;54.47
39491;BME280;25175;50.140;18.990;2024-03-07T18:40:37;99169.09;;;3.62;54.55
39491;BME280;25175;50.140;18.990;2024-03-07T18:43:54;99157.91;;;3.61;54.38
39491;BME280;25175;50.140;18.990;2024-03-07T18:47:12;99159.69;;;3.61;54.33
39491;BME280;25175;50.140;18.990;2024-03-07T18:55:43;99163.75;;;3.63;54.23
39491;BME280;25175;50.140;18.990;2024-03-07T18:59:38;99161.16;;;3.63;54.21
39491;BME280;25175;50.140;18.990;2024-03-07T19:03:09;98876.94;;;1.86;54.18
39491;BME280;25175;50.140;18.990;2024-03-07T19:11:04;99152.19;;;3.58;54.63
39491;BME280;25175;50.140;18.990;2024-03-07T19:14:13;99158.19;;;3.58;54.36
39491;BME280;25175;50.140;18.990;2024-03-07T19:17:39;99157.69;;;3.55;54.69
39491;BME280;25175;50.140;18.990;2024-03-07T19:21:03;99161.91;;;3.56;55.00
39491;BME280;25175;50.140;18.990;2024-03-07T19:24:15;99155.75;;;3.57;54.75
39491;BME280;25175;50.140;18.990;2024-03-07T19:27:44;99159.31;;;3.56;54.86
39491;BME280;25175;50.140;18.990;2024-03-07T19:31:38;99161.25;;;3.54;54.55
39491;BME280;25175;50.140;18.990;2024-03-07T19:35:01;99162.72;;;3.56;54.83
39491;BME280;25175;50.140;18.990;2024-03-07T19:38:30;99146.34;;;3.56;54.98
39491;BME280;25175;50.140;18.990;2024-03-07T19:42:57;99162.88;;;3.55;54.53
39491;BME280;25175;50.140;18.990;2024-03-07T19:46:08;99166.72;;;3.51;54.86
39491;BME280;25175;50.140;18.990;2024-03-07T19:49:20;99159.88;;;3.50;54.79
39491;BME280;25175;50.140;18.990;2024-03-07T19:57:22;99157.97;;;3.52;55.03
39491;BME280;25175;50.140;18.990;2024-03-07T20:00:44;99154.13;;;3.56;55.29
39491;BME280;25175;50.140;18.990;2024-03-07T20:04:02;99152.19;;;3.58;55.05
39491;BME280;25175;50.140;18.990;2024-03-07T20:07:14;99143.50;;;3.49;55.23
39491;BME280;25175;50.140;18.990;2024-03-07T20:10:21;99155.59;;;3.58;54.91
39491;BME280;25175;50.140;18.990;2024-03-07T20:13:55;99153.28;;;3.55;54.82
39491;BME280;25175;50.140;18.990;2024-03-07T20:17:41;99156.72;;;3.56;54.72
39491;BME280;25175;50.140;18.990;2024-03-07T20:25:02;99157.44;;;3.31;54.90
39491;BME280;25175;50.140;18.990;2024-03-07T20:28:10;99154.66;;;3.15;54.88
39491;BME280;25175;50.140;18.990;2024-03-07T20:31:34;99148.97;;;3.02;55.57
39491;BME280;25175;50.140;18.990;2024-03-07T20:39:08;99155.88;;;2.84;55.62
39491;BME280;25175;50.140;18.990;2024-03-07T20:42:27;99142.84;;;2.76;56.02
39491;BME280;25175;50.140;18.990;2024-03-07T20:45:33;99148.56;;;2.70;55.83
39491;BME280;25175;50.140;18.990;2024-03-07T20:49:19;99145.03;;;2.61;56.14
39491;BME280;25175;50.140;18.990;2024-03-07T20:52:48;99151.09;;;2.52;56.09
39491;BME280;25175;50.140;18.990;2024-03-07T20:55:59;99164.44;;;2.48;56.43
39491;BME280;25175;50.140;18.990;2024-03-07T20:59:05;99154.66;;;2.42;56.45
39491;BME280;25175;50.140;18.990;2024-03-07T21:02:27;99156.03;;;2.36;56.73
39491;BME280;25175;50.140;18.990;2024-03-07T21:05:36;99091.28;;;1.90;56.56
39491;BME280;25175;50.140;18.990;2024-03-07T21:12:47;99159.50;;;2.08;56.82
39491;BME280;25175;50.140;18.990;2024-03-07T21:16:31;99147.22;;;2.01;57.16
39491;BME280;25175;50.140;18.990;2024-03-07T21:19:41;99152.41;;;1.91;57.37
39491;BME280;25175;50.140;18.990;2024-03-07T21:22:54;99144.25;;;1.86;57.48
39491;BME280;25175;50.140;18.990;2024-03-07T21:26:18;99141.66;;;1.77;57.64
39491;BME280;25175;50.140;18.990;2024-03-07T21:30:14;99141.81;;;1.75;57.81
39491;BME280;25175;50.140;18.990;2024-03-07T21:33:27;99150.09;;;1.69;57.83
39491;BME280;25175;50.140;18.990;2024-03-07T21:36:51;99147.09;;;1.64;58.06
39491;BME280;25175;50.140;18.990;2024-03-07T21:40:49;99153.50;;;1.60;58.25
39491;BME280;25175;50.140;18.990;2024-03-07T21:44:06;99142.06;;;1.53;58.41
39491;BME280;25175;50.140;18.990;2024-03-07T21:47:13;99155.78;;;1.54;58.58
39491;BME280;25175;50.140;18.990;2024-03-07T21:50:58;99145.72;;;1.51;58.37
39491;BME280;25175;50.140;18.990;2024-03-07T21:54:26;99141.09;;;1.45;58.30
39491;BME280;25175;50.140;18.990;2024-03-07T21:57:52;99133.84;;;1.39;58.69
39491;BME280;25175;50.140;18.990;2024-03-07T22:05:04;99136.81;;;1.34;58.77
39491;BME280;25175;50.140;18.990;2024-03-07T22:08:14;99141.47;;;1.40;58.58
39491;BME280;25175;50.140;18.990;2024-03-07T22:12:17;99126.09;;;1.39;58.30
39491;BME280;25175;50.140;18.990;2024-03-07T22:15:27;99131.09;;;1.31;58.56
39491;BME280;25175;50.140;18.990;2024-03-07T22:19:53;99126.34;;;1.26;58.86
39491;BME280;25175;50.140;18.990;2024-03-07T22:23:39;99127.13;;;1.17;58.90
39491;BME280;25175;50.140;18.990;2024-03-07T22:26:51;99160.59;;;1.09;59.00
39491;BME280;25175;50.140;18.990;2024-03-07T22:29:57;99125.75;;;1.04;59.20
39491;BME280;25175;50.140;18.990;2024-03-07T22:33:11;99126.25;;;0.98;59.29
39491;BME280;25175;50.140;18.990;2024-03-07T22:36:23;99125.16;;;0.91;59.61
39491;BME280;25175;50.140;18.990;2024-03-07T22:39:35;99120.53;;;0.85;59.68
39491;BME280;25175;50.140;18.990;2024-03-07T22:46:06;99116.69;;;0.79;60.06
39491;BME280;25175;50.140;18.990;2024-03-07T22:49:15;99109.09;;;0.78;60.25
39491;BME280;25175;50.140;18.990;2024-03-07T22:52:27;99116.25;;;0.74;60.08
39491;BME280;25175;50.140;18.990;2024-03-07T22:59:36;99087.41;;;0.60;60.29
39491;BME280;25175;50.140;18.990;2024-03-07T23:03:15;99112.44;;;0.69;60.56
39491;BME280;25175;50.140;18.990;2024-03-07T23:06:50;99105.78;;;0.66;60.73
39491;BME280;25175;50.140;18.990;2024-03-07T23:14:27;99110.81;;;0.68;60.51
39491;BME280;25175;50.140;18.990;2024-03-07T23:17:37;99115.97;;;0.68;60.62
39491;BME280;25175;50.140;18.990;2024-03-07T23:24:45;99115.72;;;0.71;60.83
39491;BME280;25175;50.140;18.990;2024-03-07T23:32:28;99109.78;;;0.80;60.63
39491;BME280;25175;50.140;18.990;2024-03-07T23:35:57;99111.53;;;0.79;60.31
39491;BME280;25175;50.140;18.990;2024-03-07T23:39:08;99113.19;;;0.80;60.74
39491;BME280;25175;50.140;18.990;2024-03-07T23:42:22;99113.72;;;0.84;60.97
39491;BME280;25175;50.140;18.990;2024-03-07T23:45:41;99119.16;;;0.90;60.84
39491;BME280;25175;50.140;18.990;2024-03-07T23:52:43;99052.22;;;0.68;60.30
39491;BME280;25175;50.140;18.990;2024-03-07T23:55:54;99114.88;;;1.10;60.03
39491;BME280;25175;50.140;18.990;2024-03-07T23:59:30;99113.94;;;1.11;60.31
